createdAt,value
2018-05-09T00:00:36.508Z,3.90
2018-05-09T00:03:04.010Z,3.57
2018-05-09T00:05:31.484Z,3.83
2018-05-09T00:07:58.952Z,3.50
2018-05-09T00:10:26.424Z,3.27
2018-05-09T00:12:53.903Z,3.00
2018-05-09T00:15:21.452Z,3.07
2018-05-09T00:17:48.905Z,3.10
2018-05-09T00:20:16.376Z,3.47
2018-05-09T00:22:43.828Z,3.30
2018-05-09T00:25:11.312Z,3.50
2018-05-09T00:27:38.847Z,3.17
2018-05-09T00:30:06.304Z,3.07
2018-05-09T00:32:34.085Z,3.30
2018-05-09T00:35:01.556Z,2.90
2018-05-09T00:37:29.023Z,3.83
2018-05-09T00:39:56.499Z,3.17
2018-05-09T00:42:23.948Z,3.73
2018-05-09T00:44:51.543Z,4.57
2018-05-09T00:47:19.783Z,3.73
2018-05-09T00:49:47.232Z,3.60
2018-05-09T00:52:14.712Z,5.00
2018-05-09T00:54:42.225Z,4.40
2018-05-09T00:57:09.685Z,4.13
2018-05-09T00:59:37.185Z,4.30
2018-05-09T01:02:04.643Z,3.80
2018-05-09T01:04:32.102Z,3.30
2018-05-09T01:06:59.580Z,3.77
2018-05-09T01:09:27.124Z,3.80
2018-05-09T01:11:54.532Z,3.70
2018-05-09T01:14:22.031Z,3.70
2018-05-09T01:16:49.515Z,3.33
2018-05-09T01:19:17.748Z,3.53
2018-05-09T01:21:45.220Z,3.40
2018-05-09T01:24:12.688Z,2.80
2018-05-09T01:26:40.148Z,2.87
2018-05-09T01:29:07.629Z,3.30
2018-05-09T01:31:35.892Z,3.47
2018-05-09T01:34:04.122Z,2.67
2018-05-09T01:36:31.643Z,3.20
2018-05-09T01:38:59.895Z,3.33
2018-05-09T01:41:27.345Z,3.23
2018-05-09T01:43:54.823Z,4.00
2018-05-09T01:46:23.114Z,3.23
2018-05-09T01:48:51.360Z,3.47
2018-05-09T01:51:18.845Z,3.60
2018-05-09T01:53:47.061Z,4.30
2018-05-09T01:56:14.521Z,3.67
2018-05-09T01:58:42.020Z,3.80
2018-05-09T02:01:09.474Z,3.17
2018-05-09T02:03:36.935Z,3.53
2018-05-09T02:06:04.447Z,3.60
2018-05-09T02:08:31.916Z,3.70
2018-05-09T02:10:59.373Z,3.47
2018-05-09T02:13:26.832Z,4.50
2018-05-09T02:15:54.308Z,3.70
2018-05-09T02:18:21.772Z,3.50
2018-05-09T02:20:49.257Z,3.80
2018-05-09T02:23:17.465Z,3.53
2018-05-09T02:25:44.984Z,3.73
2018-05-09T02:28:12.461Z,3.73
2018-05-09T02:30:39.912Z,4.00
2018-05-09T02:33:07.404Z,4.00
2018-05-09T02:35:34.936Z,3.83
2018-05-09T02:38:03.176Z,5.27
2018-05-09T02:40:30.649Z,3.77
2018-05-09T02:42:58.887Z,3.43
2018-05-09T02:45:26.364Z,4.37
2018-05-09T02:47:53.840Z,4.27
2018-05-09T02:50:22.080Z,4.17
2018-05-09T02:52:49.558Z,4.30
2018-05-09T02:55:17.010Z,3.93
2018-05-09T02:57:44.482Z,4.70
2018-05-09T03:00:11.939Z,4.70
2018-05-09T03:02:39.425Z,4.40
2018-05-09T03:05:06.974Z,4.70
2018-05-09T03:07:35.221Z,3.77
2018-05-09T03:10:02.676Z,4.80
2018-05-09T03:12:30.155Z,4.60
2018-05-09T03:14:57.623Z,4.50
2018-05-09T03:17:25.077Z,4.77
2018-05-09T03:19:52.560Z,4.90
2018-05-09T03:22:20.784Z,4.93
2018-05-09T03:24:48.255Z,4.40
2018-05-09T03:27:15.716Z,4.70
2018-05-09T03:29:43.616Z,5.40
2018-05-09T03:32:11.038Z,4.80
2018-05-09T03:34:38.567Z,4.87
2018-05-09T03:37:06.038Z,5.30
2018-05-09T03:39:33.517Z,4.90
2018-05-09T03:42:00.964Z,4.67
2018-05-09T03:44:28.457Z,5.10
2018-05-09T03:46:55.907Z,5.30
2018-05-09T03:49:23.359Z,4.77
2018-05-09T03:51:50.832Z,5.10
2018-05-09T03:54:19.053Z,4.70
2018-05-09T03:56:46.532Z,4.80
2018-05-09T03:59:13.984Z,5.40
2018-05-09T04:01:53.317Z,5.40
2018-05-09T04:04:32.626Z,5.50
2018-05-09T04:07:11.801Z,4.67
2018-05-09T04:09:50.405Z,4.80
2018-05-09T04:12:17.927Z,5.30
2018-05-09T04:14:45.358Z,5.10
2018-05-09T04:17:12.827Z,4.83
2018-05-09T04:19:41.064Z,4.80
2018-05-09T04:22:08.673Z,4.53
2018-05-09T04:24:36.140Z,5.30
2018-05-09T04:27:03.632Z,4.80
2018-05-09T04:29:31.082Z,5.57
2018-05-09T04:31:58.534Z,5.27
2018-05-09T04:34:26.017Z,4.83
2018-05-09T04:36:53.465Z,5.60
2018-05-09T04:39:20.944Z,5.30
2018-05-09T04:41:48.610Z,4.40
2018-05-09T04:44:16.083Z,4.60
2018-05-09T04:46:43.565Z,4.27
2018-05-09T04:49:11.284Z,5.27
2018-05-09T04:51:38.685Z,4.47
2018-05-09T04:54:06.143Z,4.70
2018-05-09T04:56:34.424Z,4.63
2018-05-09T04:59:01.890Z,5.23
2018-05-09T05:01:29.364Z,4.40
2018-05-09T05:03:56.845Z,4.90
2018-05-09T05:06:24.344Z,4.80
2018-05-09T05:08:51.821Z,5.03
2018-05-09T05:11:19.272Z,4.87
2018-05-09T05:13:46.760Z,4.87
2018-05-09T05:16:14.220Z,4.47
2018-05-09T05:18:41.720Z,4.60
2018-05-09T05:21:09.176Z,4.67
2018-05-09T05:23:36.625Z,4.53
2018-05-09T05:26:04.121Z,4.53
2018-05-09T05:28:31.619Z,4.27
2018-05-09T05:30:59.904Z,5.10
2018-05-09T05:33:27.874Z,4.20
2018-05-09T05:35:55.367Z,6.00
2018-05-09T05:38:23.274Z,7.63
2018-05-09T05:40:50.744Z,6.70
2018-05-09T05:43:18.236Z,6.60
2018-05-09T05:45:45.692Z,7.30
2018-05-09T05:48:13.288Z,7.37
2018-05-09T05:50:41.534Z,7.97
2018-05-09T05:53:09.197Z,8.67
2018-05-09T05:55:36.682Z,7.70
2018-05-09T05:58:04.930Z,7.50
2018-05-09T06:00:32.384Z,7.43
2018-05-09T06:02:59.971Z,8.37
2018-05-09T06:05:27.458Z,8.37
2018-05-09T06:07:55.047Z,7.30
2018-05-09T06:10:22.486Z,8.00
2018-05-09T06:12:49.947Z,8.17
2018-05-09T06:15:17.432Z,8.63
2018-05-09T06:17:44.888Z,8.20
2018-05-09T06:20:12.373Z,7.50
2018-05-09T06:22:39.830Z,8.43
2018-05-09T06:25:07.310Z,7.63
2018-05-09T06:27:35.532Z,7.43
2018-05-09T06:30:03.030Z,7.17
2018-05-09T06:32:31.302Z,7.73
2018-05-09T06:34:58.768Z,7.53
2018-05-09T06:37:26.238Z,7.90
2018-05-09T06:39:53.709Z,7.43
2018-05-09T06:42:21.162Z,8.13
2018-05-09T06:44:48.641Z,8.00
2018-05-09T06:47:16.216Z,9.10
2018-05-09T06:49:43.687Z,9.07
2018-05-09T06:52:11.131Z,7.37
2018-05-09T06:54:38.612Z,9.00
2018-05-09T06:57:06.075Z,8.70
2018-05-09T06:59:33.560Z,8.07
2018-05-09T07:02:01.017Z,8.50
2018-05-09T07:04:28.471Z,8.33
2018-05-09T07:06:55.944Z,8.97
2018-05-09T07:09:23.436Z,8.60
2018-05-09T07:11:50.924Z,9.00
2018-05-09T07:14:18.383Z,10.00
2018-05-09T07:16:45.896Z,8.70
2018-05-09T07:19:13.348Z,9.20
2018-05-09T07:21:40.813Z,9.80
2018-05-09T07:24:08.295Z,8.77
2018-05-09T07:26:35.879Z,8.77
2018-05-09T07:29:04.167Z,8.40
2018-05-09T07:31:31.622Z,8.10
2018-05-09T07:33:59.076Z,8.23
2018-05-09T07:36:26.572Z,9.20
2018-05-09T07:38:54.039Z,9.27
2018-05-09T07:41:21.489Z,8.50
2018-05-09T07:43:48.981Z,9.03
2018-05-09T07:46:16.441Z,7.90
2018-05-09T07:48:43.920Z,7.83
2018-05-09T07:51:11.379Z,7.77
2018-05-09T07:53:38.855Z,8.00
2018-05-09T07:56:06.328Z,8.03
2018-05-09T07:58:34.009Z,9.07
2018-05-09T08:01:01.480Z,8.20
2018-05-09T08:03:28.937Z,8.80
2018-05-09T08:05:56.538Z,8.33
2018-05-09T08:08:23.943Z,9.90
2018-05-09T08:10:51.405Z,8.37
2018-05-09T08:13:18.885Z,8.30
2018-05-09T08:15:46.397Z,7.40
2018-05-09T08:18:13.828Z,6.43
2018-05-09T08:20:41.296Z,6.70
2018-05-09T08:23:08.772Z,5.57
2018-05-09T08:25:36.236Z,5.50
2018-05-09T08:28:03.726Z,6.47
2018-05-09T08:30:31.181Z,7.07
2018-05-09T08:32:58.664Z,6.00
2018-05-09T08:35:26.128Z,7.30
2018-05-09T08:37:53.706Z,6.90
2018-05-09T08:40:21.105Z,7.33
2018-05-09T08:42:48.603Z,6.40
2018-05-09T08:45:16.076Z,5.67
2018-05-09T08:47:43.568Z,8.27
2018-05-09T08:50:11.073Z,6.33
2018-05-09T08:52:38.552Z,6.20
2018-05-09T08:55:06.008Z,6.50
2018-05-09T08:57:33.495Z,6.67
2018-05-09T09:00:01.740Z,6.53
2018-05-09T09:02:29.204Z,6.37
2018-05-09T09:04:56.765Z,6.10
2018-05-09T09:07:24.241Z,7.10
2018-05-09T09:09:52.471Z,5.83
2018-05-09T09:12:19.953Z,7.80
2018-05-09T09:14:47.410Z,6.60
2018-05-09T09:17:14.885Z,6.90
2018-05-09T09:19:42.345Z,6.30
2018-05-09T09:22:09.829Z,6.03
2018-05-09T09:24:37.287Z,6.10
2018-05-09T09:27:04.768Z,6.17
2018-05-09T09:29:32.248Z,6.70
2018-05-09T09:31:59.710Z,6.43
2018-05-09T09:34:27.193Z,5.67
2018-05-09T09:36:55.421Z,6.80
2018-05-09T09:39:22.889Z,6.53
2018-05-09T09:41:50.367Z,5.37
2018-05-09T09:44:17.838Z,5.37
2018-05-09T09:46:45.317Z,4.50
2018-05-09T09:49:13.544Z,4.73
2018-05-09T09:51:41.034Z,5.23
2018-05-09T09:54:09.276Z,6.73
2018-05-09T09:56:36.745Z,5.10
2018-05-09T09:59:04.241Z,6.87
2018-05-09T10:01:32.465Z,5.43
2018-05-09T10:03:59.908Z,6.03
2018-05-09T10:06:27.433Z,6.40
2018-05-09T10:08:55.675Z,6.23
2018-05-09T10:11:23.164Z,6.27
2018-05-09T10:13:51.389Z,5.57
2018-05-09T10:16:18.872Z,5.07
2018-05-09T10:18:46.323Z,6.80
2018-05-09T10:21:13.804Z,5.23
2018-05-09T10:23:41.281Z,4.93
2018-05-09T10:26:09.536Z,4.73
2018-05-09T10:28:37.007Z,4.50
2018-05-09T10:31:05.236Z,4.63
2018-05-09T10:33:32.720Z,3.77
2018-05-09T10:36:00.205Z,4.23
2018-05-09T10:38:28.452Z,4.30
2018-05-09T10:40:55.947Z,3.23
2018-05-09T10:43:24.164Z,3.00
2018-05-09T10:45:51.617Z,2.70
2018-05-09T10:48:19.261Z,2.83
2018-05-09T10:50:46.751Z,2.50
2018-05-09T10:53:14.183Z,2.30
2018-05-09T10:55:41.749Z,1.90
2018-05-09T10:58:09.213Z,2.40
2018-05-09T11:00:36.702Z,2.60
2018-05-09T11:03:04.183Z,2.63
2018-05-09T11:05:31.755Z,2.50
2018-05-09T11:07:59.995Z,2.40
2018-05-09T11:10:27.472Z,3.10
2018-05-09T11:12:54.944Z,2.60
2018-05-09T11:15:23.172Z,2.50
2018-05-09T11:17:50.725Z,2.47
2018-05-09T11:20:18.201Z,2.73
2018-05-09T11:22:45.658Z,2.57
2018-05-09T11:25:13.149Z,2.13
2018-05-09T11:27:40.604Z,3.80
2018-05-09T11:30:08.089Z,2.57
2018-05-09T11:32:35.540Z,2.23
2018-05-09T11:35:03.116Z,2.60
2018-05-09T11:37:30.630Z,2.50
2018-05-09T11:39:58.077Z,3.27
2018-05-09T11:42:25.557Z,2.83
2018-05-09T11:44:53.023Z,3.40
2018-05-09T11:47:21.253Z,2.83
2018-05-09T11:49:48.819Z,2.67
2018-05-09T11:52:16.269Z,3.80
2018-05-09T11:54:43.684Z,2.83
2018-05-09T11:57:11.169Z,4.10
2018-05-09T11:59:38.629Z,2.30
2018-05-09T12:02:06.269Z,2.90
2018-05-09T12:04:33.731Z,3.40
2018-05-09T12:07:01.178Z,3.50
2018-05-09T12:09:28.640Z,3.10
2018-05-09T12:11:56.116Z,2.53
2018-05-09T12:14:23.609Z,2.97
2018-05-09T12:16:51.837Z,2.50
2018-05-09T12:19:19.324Z,2.47
2018-05-09T12:21:46.780Z,2.60
2018-05-09T12:24:14.335Z,2.67
2018-05-09T12:26:41.809Z,2.90
2018-05-09T12:29:09.270Z,3.10
2018-05-09T12:31:36.752Z,3.13
2018-05-09T12:34:04.206Z,2.60
2018-05-09T12:36:31.725Z,2.60
2018-05-09T12:38:59.148Z,2.87
2018-05-09T12:41:27.385Z,3.87
2018-05-09T12:43:54.836Z,2.57
2018-05-09T12:46:22.322Z,3.40
2018-05-09T12:48:49.969Z,3.20
2018-05-09T12:51:17.436Z,2.70
2018-05-09T12:53:44.893Z,3.37
2018-05-09T12:56:12.392Z,3.23
2018-05-09T12:58:39.858Z,2.63
2018-05-09T13:01:07.311Z,3.40
2018-05-09T13:03:35.013Z,2.53
2018-05-09T13:06:02.488Z,2.53
2018-05-09T13:08:29.957Z,3.00
2018-05-09T13:10:57.462Z,2.87
2018-05-09T13:13:24.949Z,3.97
2018-05-09T13:15:52.419Z,3.30
2018-05-09T13:18:19.880Z,3.30
2018-05-09T13:20:47.368Z,3.30
2018-05-09T13:23:15.595Z,3.50
2018-05-09T13:25:43.164Z,3.70
2018-05-09T13:28:10.595Z,3.10
2018-05-09T13:30:38.085Z,3.33
2018-05-09T13:33:05.552Z,2.90
2018-05-09T13:35:33.036Z,4.23
2018-05-09T13:38:00.493Z,4.23
2018-05-09T13:40:28.733Z,3.63
2018-05-09T13:42:56.204Z,4.27
2018-05-09T13:45:23.681Z,3.03
2018-05-09T13:47:51.220Z,3.30
2018-05-09T13:50:18.685Z,3.70
2018-05-09T13:52:46.199Z,3.03
2018-05-09T13:55:13.647Z,2.93
2018-05-09T13:57:41.115Z,2.93
2018-05-09T14:00:08.584Z,3.40
2018-05-09T14:02:36.045Z,3.37
2018-05-09T14:05:03.521Z,3.17
2018-05-09T14:07:30.977Z,3.10
2018-05-09T14:09:58.514Z,2.63
2018-05-09T14:12:26.000Z,2.77
2018-05-09T14:14:53.480Z,3.10
2018-05-09T14:17:21.701Z,3.37
2018-05-09T14:19:49.168Z,3.10
2018-05-09T14:22:16.653Z,3.53
2018-05-09T14:24:44.135Z,2.93
2018-05-09T14:27:12.412Z,2.90
2018-05-09T14:29:40.653Z,2.50
2018-05-09T14:32:08.201Z,3.37
2018-05-09T14:34:35.626Z,3.17
2018-05-09T14:37:03.081Z,2.50
2018-05-09T14:39:30.568Z,2.60
2018-05-09T14:41:58.029Z,2.47
2018-05-09T14:44:25.537Z,2.23
2018-05-09T14:46:53.001Z,2.50
2018-05-09T14:49:21.239Z,2.37
2018-05-09T14:51:48.693Z,2.50
2018-05-09T14:54:16.140Z,2.40
2018-05-09T14:56:43.607Z,2.50
2018-05-09T14:59:11.057Z,2.63
2018-05-09T15:01:38.537Z,3.27
2018-05-09T15:04:06.025Z,2.43
2018-05-09T15:06:33.484Z,2.53
2018-05-09T15:09:00.942Z,2.20
2018-05-09T15:11:28.418Z,2.83
2018-05-09T15:13:55.915Z,2.87
2018-05-09T15:16:23.416Z,2.30
2018-05-09T15:18:51.661Z,2.67
2018-05-09T15:21:19.136Z,2.87
2018-05-09T15:23:46.609Z,3.10
2018-05-09T15:26:14.077Z,2.53
2018-05-09T15:28:41.548Z,2.77
2018-05-09T15:31:09.031Z,2.37
2018-05-09T15:33:36.487Z,3.20
2018-05-09T15:36:03.968Z,3.10
2018-05-09T15:38:31.442Z,2.63
2018-05-09T15:40:59.003Z,3.37
2018-05-09T15:43:26.521Z,3.73
2018-05-09T15:45:54.045Z,3.13
2018-05-09T15:48:22.263Z,3.57
2018-05-09T15:50:49.724Z,3.70
2018-05-09T15:53:17.969Z,3.50
2018-05-09T15:55:45.418Z,3.80
2018-05-09T15:58:12.883Z,3.00
2018-05-09T16:00:40.430Z,3.30
2018-05-09T16:03:07.841Z,3.90
2018-05-09T16:05:35.288Z,3.33
2018-05-09T16:08:02.744Z,3.50
2018-05-09T16:10:30.253Z,4.77
2018-05-09T16:12:57.702Z,4.63
2018-05-09T16:15:25.187Z,4.53
2018-05-09T16:17:53.415Z,4.20
2018-05-09T16:20:20.903Z,4.80
2018-05-09T16:22:49.148Z,4.17
2018-05-09T16:25:17.041Z,3.80
2018-05-09T16:27:45.512Z,3.87
2018-05-09T16:30:12.964Z,4.47
2018-05-09T16:32:40.455Z,4.67
2018-05-09T16:35:08.674Z,4.33
2018-05-09T16:37:36.313Z,5.13
2018-05-09T16:40:03.924Z,18.23
2018-05-09T16:42:31.395Z,20.50
2018-05-09T16:44:58.868Z,7.40
2018-05-09T16:47:27.378Z,4.83
2018-05-09T16:49:55.855Z,4.57
2018-05-09T16:52:23.445Z,4.60
2018-05-09T16:54:50.952Z,5.70
2018-05-09T16:57:19.243Z,4.70
2018-05-09T16:59:46.688Z,4.87
2018-05-09T17:02:14.177Z,5.40
2018-05-09T17:04:41.640Z,4.63
2018-05-09T17:07:09.101Z,5.93
2018-05-09T17:09:36.600Z,7.50
2018-05-09T17:12:04.060Z,14.83
2018-05-09T17:14:31.544Z,14.87
2018-05-09T17:16:59.816Z,16.63
2018-05-09T17:19:28.073Z,19.67
2018-05-09T17:22:13.758Z,19.67
2018-05-09T17:24:41.238Z,17.77
2018-05-09T17:27:08.725Z,20.10
2018-05-09T17:29:36.203Z,19.90
2018-05-09T17:32:03.659Z,18.90
2018-05-09T17:34:31.360Z,20.23
2018-05-09T17:36:58.824Z,18.40
2018-05-09T17:39:26.279Z,19.47
2018-05-09T17:41:53.770Z,21.10
2018-05-09T17:44:21.257Z,17.20
2018-05-09T17:46:48.754Z,19.13
2018-05-09T17:49:16.219Z,20.20
2018-05-09T17:51:43.709Z,19.70
2018-05-09T17:54:11.168Z,18.90
2018-05-09T17:56:38.731Z,21.80
2018-05-09T17:59:06.208Z,19.60
2018-05-09T18:01:33.724Z,18.60
2018-05-09T18:04:01.219Z,19.80
2018-05-09T18:06:28.743Z,19.73
2018-05-09T18:08:56.998Z,19.87
2018-05-09T18:11:24.456Z,20.93
2018-05-09T18:13:51.940Z,19.03
2018-05-09T18:16:20.188Z,22.20
2018-05-09T18:18:47.665Z,21.20
2018-05-09T18:21:15.896Z,21.30
2018-05-09T18:23:43.451Z,22.17
2018-05-09T18:26:11.126Z,19.37
2018-05-09T18:28:38.647Z,19.67
2018-05-09T18:31:06.130Z,18.50
2018-05-09T18:33:33.688Z,18.83
2018-05-09T18:36:01.089Z,17.93
2018-05-09T18:38:28.585Z,17.60
2018-05-09T18:40:56.059Z,18.20
2018-05-09T18:43:23.543Z,16.77
2018-05-09T18:45:51.023Z,19.83
2018-05-09T18:48:18.510Z,17.43
2018-05-09T18:50:45.994Z,16.67
2018-05-09T18:53:13.487Z,17.70
2018-05-09T18:55:41.053Z,16.90
2018-05-09T18:58:08.581Z,17.60
2018-05-09T19:00:36.280Z,17.97
2018-05-09T19:03:03.858Z,20.50
2018-05-09T19:05:31.275Z,18.00
2018-05-09T19:07:58.791Z,19.67
2018-05-09T19:10:26.690Z,20.37
2018-05-09T19:12:54.183Z,19.80
2018-05-09T19:15:21.819Z,18.10
2018-05-09T19:17:49.492Z,19.80
2018-05-09T19:20:17.239Z,19.60
2018-05-09T19:22:44.836Z,21.90
2018-05-09T19:25:12.564Z,20.23
2018-05-09T19:27:40.150Z,19.43
2018-05-09T19:30:07.852Z,19.80
2018-05-09T19:32:35.491Z,20.17
2018-05-09T19:35:03.117Z,18.20
2018-05-09T19:37:30.758Z,21.87
2018-05-09T19:39:58.265Z,22.00
2018-05-09T19:42:26.001Z,19.83
2018-05-09T19:44:53.636Z,20.30
2018-05-09T19:47:21.296Z,21.90
2018-05-09T19:49:49.801Z,21.30
2018-05-09T19:52:17.513Z,23.03
2018-05-09T19:54:45.106Z,22.20
2018-05-09T19:57:12.579Z,22.47
2018-05-09T19:59:40.065Z,22.73
2018-05-09T20:02:07.675Z,21.50
2018-05-09T20:04:35.171Z,21.80
2018-05-09T20:07:02.643Z,22.33
2018-05-09T20:09:30.185Z,23.10
2018-05-09T20:11:57.820Z,23.50
2018-05-09T20:14:26.059Z,24.30
2018-05-09T20:16:53.527Z,23.50
2018-05-09T20:19:22.004Z,23.80
2018-05-09T20:21:50.292Z,23.57
2018-05-09T20:24:18.580Z,24.00
2018-05-09T20:26:46.111Z,24.57
2018-05-09T20:29:13.649Z,24.47
2018-05-09T20:31:57.291Z,25.33
2018-05-09T20:34:24.974Z,22.20
2018-05-09T20:36:52.574Z,24.80
2018-05-09T20:39:20.136Z,25.03
2018-05-09T20:41:47.805Z,22.00
2018-05-09T20:44:15.418Z,23.83
2018-05-09T20:46:43.266Z,25.60
2018-05-09T20:49:11.985Z,25.10
2018-05-09T20:51:51.156Z,25.17
2018-05-09T20:54:18.752Z,26.60
2018-05-09T20:56:46.398Z,27.23
2018-05-09T20:59:14.026Z,28.30
2018-05-09T21:01:47.131Z,26.13
2018-05-09T21:04:14.782Z,30.10
2018-05-09T21:06:42.345Z,29.60
2018-05-09T21:09:10.053Z,33.73
2018-05-09T21:11:37.566Z,35.57
2018-05-09T21:14:05.108Z,35.80
2018-05-09T21:16:32.589Z,33.73
2018-05-09T21:19:00.103Z,37.30
2018-05-09T21:21:28.423Z,36.43
2018-05-09T21:23:56.665Z,35.20
2018-05-09T21:26:24.123Z,38.57
2018-05-09T21:28:51.594Z,35.03
2018-05-09T21:31:19.856Z,37.40
2018-05-09T21:33:47.315Z,45.07
2018-05-09T21:36:14.777Z,43.67
2018-05-09T21:38:42.286Z,42.67
2018-05-09T21:41:09.772Z,47.67
2018-05-09T21:43:37.247Z,52.70
2018-05-09T21:46:04.700Z,52.77
2018-05-09T21:48:33.110Z,51.90
2018-05-09T21:51:00.610Z,52.27
2018-05-09T21:53:28.089Z,52.07
2018-05-09T21:55:55.638Z,50.80
2018-05-09T21:58:23.067Z,53.47
2018-05-09T22:00:50.533Z,56.37
2018-05-09T22:03:18.024Z,56.10
2018-05-09T22:05:45.509Z,55.70
2018-05-09T22:08:12.979Z,53.27
2018-05-09T22:10:41.408Z,53.13
2018-05-09T22:13:08.873Z,53.70
2018-05-09T22:15:36.409Z,53.50
2018-05-09T22:18:03.878Z,58.50
2018-05-09T22:20:31.401Z,58.50
2018-05-09T22:22:58.837Z,52.60
2018-05-09T22:25:26.343Z,54.23
2018-05-09T22:27:53.799Z,53.73
2018-05-09T22:30:21.284Z,54.90
2018-05-09T22:32:48.923Z,52.47
2018-05-09T22:35:16.390Z,48.30
2018-05-09T22:37:43.884Z,55.27
2018-05-09T22:40:11.339Z,56.87
2018-05-09T22:42:38.820Z,54.77
2018-05-09T22:45:07.095Z,52.30
2018-05-09T22:47:35.352Z,55.73
2018-05-09T22:50:02.813Z,54.47
2018-05-09T22:52:30.292Z,53.67
2018-05-09T22:54:58.543Z,52.50
2018-05-09T22:57:26.012Z,53.57
2018-05-09T22:59:53.472Z,51.83
2018-05-09T23:02:20.924Z,53.43
2018-05-09T23:04:48.411Z,57.90
2018-05-09T23:07:16.686Z,44.23
2018-05-09T23:09:44.151Z,48.77
2018-05-09T23:12:12.395Z,49.00
2018-05-09T23:14:39.892Z,47.00
2018-05-09T23:17:07.381Z,46.27
2018-05-09T23:19:34.839Z,42.27
2018-05-09T23:22:02.376Z,45.47
2018-05-09T23:24:29.820Z,44.40
2018-05-09T23:26:57.292Z,41.80
2018-05-09T23:29:24.756Z,43.70
2018-05-09T23:31:52.241Z,37.13
2018-05-09T23:34:19.707Z,37.53
2018-05-09T23:36:47.220Z,36.60
2018-05-09T23:39:14.696Z,32.67
2018-05-09T23:41:42.175Z,33.50
2018-05-09T23:44:09.710Z,35.50
2018-05-09T23:46:37.179Z,32.77
2018-05-09T23:49:04.641Z,29.20
2018-05-09T23:51:32.123Z,31.67
2018-05-09T23:53:59.588Z,30.50
2018-05-09T23:56:27.073Z,28.33
2018-05-09T23:58:55.294Z,30.37
